Time;durP1;ratioP1;P1;durP2;ratioP2;P2;SDS_P1;SDS_P2;PMS_P1;PMS_P2;Temp;Humidity;BMP_temperature;BMP_pressure;BME280_temperature;BME280_humidity;BME280_pressure;Samples;Min_cycle;Max_cycle;Signal;HPM_P1;HPM_P2
2022/12/29 00:01:37;;;;;;;4.60;1.30;;;;;;;12.30;58.25;98191.94;4986648;28;20236;-62
2022/12/29 00:04:04;;;;;;;2.77;1.17;;;;;;;12.37;57.63;98191.06;4982580;28;20227;-62
2022/12/29 00:06:33;;;;;;;4.43;1.50;;;;;;;12.35;57.56;98211.34;4987534;28;20260;-62
2022/12/29 00:08:59;;;;;;;5.27;1.03;;;;;;;12.32;57.54;98197.81;4984566;28;20734;-62
2022/12/29 00:11:27;;;;;;;4.47;1.00;;;;;;;12.39;56.16;98188.28;4985753;28;20289;-62
2022/12/29 00:16:39;;;;;;;3.70;1.27;;;;;;;12.39;56.68;98186.47;4987364;28;20238;-62
2022/12/29 00:19:06;;;;;;;2.57;1.20;;;;;;;12.36;56.50;98186.81;4984066;28;20245;-62
2022/12/29 00:35:39;;;;;;;4.87;1.40;;;;;;;12.35;57.30;98194.84;4942557;28;20696;-62
2022/12/29 00:46:21;;;;;;;5.00;1.13;;;;;;;12.26;57.69;98204.53;4982302;28;20243;-62
2022/12/29 00:51:35;;;;;;;4.67;1.33;;;;;;;12.24;58.58;98206.50;4960844;28;20240;-62
2022/12/29 00:54:03;;;;;;;4.77;1.20;;;;;;;12.13;59.15;98192.00;4983791;28;20733;-63
2022/12/29 00:56:30;;;;;;;2.87;1.10;;;;;;;12.02;59.53;98202.84;4983151;28;20247;-62
2022/12/29 00:59:01;;;;;;;4.50;1.40;;;;;;;11.99;59.73;98205.78;4978773;28;20232;-62
2022/12/29 01:01:28;;;;;;;3.53;0.90;;;;;;;11.96;59.64;98207.75;4983644;28;20292;-62
2022/12/29 01:03:56;;;;;;;3.03;0.93;;;;;;;11.91;60.07;98212.66;4982529;28;20235;-62
2022/12/29 01:06:24;;;;;;;3.33;1.20;;;;;;;11.96;59.66;98207.75;4984427;28;20291;-62
2022/12/29 01:10:09;;;;;;;1.90;1.10;;;;;;;11.93;59.59;98221.16;4983187;28;20264;-62
2022/12/29 01:11:38;;;;;;;3.17;1.13;;;;;;;11.91;60.11;98212.66;4985707;28;20460;-62
2022/12/29 01:14:07;;;;;;;4.57;0.97;;;;;;;11.87;60.28;98229.69;4980669;28;20774;-62
2022/12/29 01:16:36;;;;;;;2.97;1.00;;;;;;;11.90;60.05;98213.66;4984359;28;20806;-62
2022/12/29 01:19:02;;;;;;;3.97;1.23;;;;;;;11.87;60.11;98216.59;4981346;28;20234;-62
2022/12/29 01:21:29;;;;;;;1.03;0.90;;;;;;;11.80;60.37;98218.25;4983982;28;20557;-62
2022/12/29 01:23:56;;;;;;;4.33;1.40;;;;;;;11.73;61.27;98215.53;4982211;28;20232;-62
2022/12/29 01:26:22;;;;;;;2.50;1.00;;;;;;;11.73;61.06;98225.16;4984582;28;20246;-62
2022/12/29 01:28:53;;;;;;;6.37;1.40;;;;;;;11.65;61.67;98203.31;4982747;28;20241;-62
2022/12/29 01:31:20;;;;;;;4.33;0.93;;;;;;;11.70;61.15;98191.50;4982697;28;20738;-62
2022/12/29 01:33:46;;;;;;;7.67;1.23;;;;;;;11.69;60.85;98201.16;4986135;28;20235;-62
2022/12/29 01:36:15;;;;;;;7.30;1.10;;;;;;;11.69;60.71;98201.16;4982576;28;20289;-62
2022/12/29 01:38:42;;;;;;;2.30;1.10;;;;;;;11.73;61.12;98188.53;4985372;28;20235;-62
2022/12/29 01:41:11;;;;;;;5.13;1.13;;;;;;;11.76;60.83;98199.50;4982023;28;20243;-62
2022/12/29 01:43:43;;;;;;;2.60;1.20;;;;;;;11.74;60.48;98198.84;4983508;28;20312;-62
2022/12/29 01:46:20;;;;;;;4.30;1.03;;;;;;;11.70;61.39;98200.16;4981465;28;20230;-62
2022/12/29 01:48:48;;;;;;;4.27;1.20;;;;;;;11.73;60.85;98192.00;4981829;28;20729;-63
2022/12/29 01:51:16;;;;;;;2.73;1.00;;;;;;;11.74;60.06;98208.47;4982934;28;20269;-62
2022/12/29 01:53:44;;;;;;;2.03;0.90;;;;;;;11.80;60.41;98213.03;4982957;28;20242;-62
2022/12/29 01:56:15;;;;;;;1.57;1.00;;;;;;;11.77;60.88;98201.13;4981699;28;20249;-62
2022/12/29 01:58:48;;;;;;;2.47;1.00;;;;;;;11.78;60.55;98212.38;4983520;28;20255;-62
2022/12/29 02:01:18;;;;;;;5.03;0.93;;;;;;;11.77;60.45;98203.75;4996836;28;20239;-62
2022/12/29 02:03:45;;;;;;;2.80;1.30;;;;;;;11.90;59.73;98205.00;4985103;28;20284;-62
2022/12/29 02:06:17;;;;;;;1.17;0.80;;;;;;;11.82;59.76;98203.22;4980046;28;20249;-62
2022/12/29 02:08:46;;;;;;;2.50;1.03;;;;;;;11.82;60.01;98205.84;4982971;28;20242;-62
2022/12/29 02:11:14;;;;;;;2.93;1.20;;;;;;;11.74;60.62;98193.63;4979568;28;20599;-62
2022/12/29 02:13:40;;;;;;;2.27;1.00;;;;;;;11.74;60.30;98188.41;4984948;28;20238;-62
2022/12/29 02:16:22;;;;;;;3.97;1.33;;;;;;;11.70;60.86;98204.56;4981627;28;20289;-62
2022/12/29 02:19:00;;;;;;;10.30;1.50;;;;;;;11.73;61.42;98188.53;4981409;28;20333;-62
2022/12/29 02:21:59;;;;;;;2.97;1.20;;;;;;;11.66;61.48;98193.66;4981951;28;20234;-62
2022/12/29 02:24:59;;;;;;;4.87;1.20;;;;;;;11.70;61.32;98201.97;4980009;28;20229;-62
2022/12/29 02:27:50;;;;;;;2.50;1.20;;;;;;;11.64;62.19;98187.78;4980370;28;20727;-62
2022/12/29 02:30:34;;;;;;;3.27;1.00;;;;;;;11.63;62.38;98197.44;4980898;28;20288;-62
2022/12/29 02:33:14;;;;;;;2.60;0.90;;;;;;;11.65;61.91;98184.19;4984930;28;20232;-62
2022/12/29 02:35:49;;;;;;;3.23;1.30;;;;;;;11.66;62.58;98180.56;4982758;28;20737;-62
2022/12/29 02:38:25;;;;;;;1.60;1.00;;;;;;;11.64;62.18;98195.63;4979645;28;20292;-62
2022/12/29 02:40:57;;;;;;;1.80;1.20;;;;;;;11.74;61.72;98203.25;4980930;28;20300;-62
2022/12/29 02:43:32;;;;;;;5.13;1.20;;;;;;;11.73;62.02;98188.53;4996882;28;20235;-62
2022/12/29 02:46:08;;;;;;;2.90;1.40;;;;;;;11.72;61.78;98208.66;4980926;28;20232;-62
2022/12/29 02:48:42;;;;;;;3.10;1.17;;;;;;;11.71;62.87;98190.50;4982967;28;20246;-62
2022/12/29 02:51:17;;;;;;;2.13;1.33;;;;;;;11.70;62.58;98166.19;4979478;28;20253;-62
2022/12/29 02:56:29;;;;;;;3.67;1.30;;;;;;;11.71;61.91;98165.19;4980746;28;20313;-62
2022/12/29 02:58:55;;;;;;;4.60;1.53;;;;;;;11.64;63.13;98167.69;4980411;28;20235;-62
2022/12/29 03:01:33;;;;;;;3.13;1.37;;;;;;;11.61;62.37;98157.56;4982789;28;20309;-62
2022/12/29 03:04:22;;;;;;;4.03;1.27;;;;;;;11.69;62.41;98148.88;4981889;28;20242;-62
2022/12/29 03:06:55;;;;;;;3.67;1.27;;;;;;;11.65;62.35;98153.63;4979002;28;20236;-62
2022/12/29 03:09:30;;;;;;;2.67;1.30;;;;;;;11.65;62.12;98151.03;4981841;28;20234;-62
2022/12/29 03:12:10;;;;;;;2.77;1.20;;;;;;;11.70;62.16;98137.44;4979640;28;20243;-63
2022/12/29 03:17:48;;;;;;;3.00;1.20;;;;;;;11.61;62.51;98156.75;4980407;28;20658;-62
2022/12/29 03:20:19;;;;;;;2.10;1.23;;;;;;;11.64;62.58;98146.78;4980223;28;20231;-62
2022/12/29 03:22:52;;;;;;;3.53;1.30;;;;;;;11.57;62.64;98166.72;4985641;28;20254;-62
2022/12/29 03:25:26;;;;;;;3.27;1.13;;;;;;;11.56;62.26;98125.06;4983029;28;20233;-62
2022/12/29 03:27:57;;;;;;;2.93;1.00;;;;;;;11.45;63.29;98137.50;4984026;28;20239;-62
2022/12/29 03:30:27;;;;;;;2.90;1.20;;;;;;;11.41;63.15;98102.25;4986463;28;20752;-62
2022/12/29 03:32:58;;;;;;;2.57;1.30;;;;;;;11.31;64.46;98125.97;4984598;28;20235;-62
2022/12/29 03:35:32;;;;;;;4.77;1.40;;;;;;;11.25;64.27;98115.34;4985509;28;20252;-62
2022/12/29 03:38:05;;;;;;;4.23;1.50;;;;;;;11.39;63.08;98127.72;4983154;28;20242;-62
2022/12/29 03:40:34;;;;;;;3.27;1.90;;;;;;;11.43;62.86;98123.00;4985151;28;20762;-62
2022/12/29 03:43:02;;;;;;;6.63;1.30;;;;;;;11.47;63.37;98145.19;4984159;28;20884;-62
2022/12/29 03:45:30;;;;;;;3.00;1.03;;;;;;;11.50;63.04;98126.56;4985922;28;20661;-62
2022/12/29 03:47:59;;;;;;;1.43;1.07;;;;;;;11.58;62.32;98147.44;4982322;28;20234;-62
2022/12/29 03:50:26;;;;;;;2.63;1.30;;;;;;;11.64;61.81;98127.66;4986952;28;20263;-62
2022/12/29 03:52:53;;;;;;;3.30;1.10;;;;;;;11.63;62.22;98128.63;4977648;28;20780;-62
2022/12/29 03:55:19;;;;;;;3.83;1.47;;;;;;;11.61;62.25;98157.56;4985741;28;20265;-62
2022/12/29 03:57:46;;;;;;;2.43;1.40;;;;;;;11.66;62.34;98136.94;4984462;28;20230;-62
2022/12/29 04:00:18;;;;;;;4.27;1.17;;;;;;;11.66;62.87;98130.91;4983581;28;20691;-62
2022/12/29 04:02:49;;;;;;;2.30;1.30;;;;;;;11.66;63.03;98143.97;4984335;28;20242;-62
2022/12/29 04:05:22;;;;;;;2.27;1.20;;;;;;;11.61;62.96;98138.44;4987121;28;20261;-62
2022/12/29 04:07:51;;;;;;;3.43;1.30;;;;;;;11.57;64.01;98148.44;4983471;28;20304;-62
2022/12/29 04:10:17;;;;;;;4.07;1.43;;;;;;;11.58;63.89;98123.09;4984824;28;20238;-62
2022/12/29 04:12:46;;;;;;;2.63;1.40;;;;;;;11.57;64.36;98132.75;4984578;28;20240;-62
2022/12/29 04:15:14;;;;;;;4.00;1.10;;;;;;;11.50;64.67;98131.78;4982489;28;20310;-62
2022/12/29 04:17:41;;;;;;;2.67;1.40;;;;;;;11.41;65.78;98143.25;4985059;28;20228;-62
2022/12/29 04:23:00;;;;;;;4.50;1.60;;;;;;;11.31;66.32;98130.38;4982296;28;20242;-62
2022/12/29 04:25:27;;;;;;;4.53;1.40;;;;;;;11.24;66.60;98096.28;4983629;28;20683;-62
2022/12/29 04:27:54;;;;;;;3.23;1.40;;;;;;;11.14;67.85;98117.34;4981977;28;20682;-62
2022/12/29 04:33:20;;;;;;;2.90;1.43;;;;;;;11.11;67.71;98128.16;4933379;28;20225;-62
2022/12/29 04:35:47;;;;;;;2.60;1.20;;;;;;;11.08;67.26;98138.94;4936612;29;20232;-62
2022/12/29 04:38:16;;;;;;;3.83;2.07;;;;;;;11.01;68.31;98117.88;4932331;29;20232;-62
2022/12/29 04:40:44;;;;;;;4.10;1.50;;;;;;;10.97;68.51;98105.31;4932594;29;20701;-62
2022/12/29 04:43:12;;;;;;;5.43;1.50;;;;;;;10.97;68.77;98115.78;4934320;28;20240;-62
2022/12/29 04:45:57;;;;;;;3.13;1.60;;;;;;;10.93;68.99;98116.09;4971661;23;20285;-60
2022/12/29 04:48:36;;;;;;;3.70;1.50;;;;;;;11.12;68.54;98119.34;4970674;28;20569;-60
2022/12/29 04:51:11;;;;;;;5.30;1.70;;;;;;;11.16;68.17;98104.94;4965644;28;20236;-59
2022/12/29 04:53:40;;;;;;;4.17;1.30;;;;;;;11.18;68.40;98115.22;4974086;28;20827;-60
2022/12/29 04:56:08;;;;;;;4.57;1.70;;;;;;;11.29;68.26;98127.09;4974655;28;20275;-59
2022/12/29 04:58:36;;;;;;;3.30;1.27;;;;;;;11.34;67.57;98116.97;4977640;28;20251;-60
2022/12/29 05:01:02;;;;;;;3.37;1.50;;;;;;;11.40;67.49;98115.50;4985236;28;20649;-59
2022/12/29 05:03:30;;;;;;;2.53;1.27;;;;;;;11.38;67.75;98105.19;4965652;28;20228;-60
2022/12/29 05:05:58;;;;;;;2.57;1.47;;;;;;;11.40;67.27;98091.97;4963220;28;20236;-59
2022/12/29 05:08:25;;;;;;;2.17;1.30;;;;;;;11.51;66.59;98113.31;4968330;28;20711;-60
2022/12/29 05:10:53;;;;;;;2.63;1.30;;;;;;;11.50;66.88;98105.66;4984522;28;20240;-60
2022/12/29 05:13:20;;;;;;;4.63;1.40;;;;;;;11.59;66.24;98120.31;4971309;28;20237;-60
2022/12/29 05:15:50;;;;;;;3.33;1.30;;;;;;;11.61;66.25;98105.28;4969560;28;20268;-60
2022/12/29 05:18:18;;;;;;;3.03;1.30;;;;;;;11.59;66.72;98117.72;4978256;28;20688;-60
2022/12/29 05:20:45;;;;;;;3.40;1.30;;;;;;;11.57;66.11;98111.84;4971508;28;20616;-60
2022/12/29 05:23:11;;;;;;;3.37;1.10;;;;;;;11.52;66.41;98107.09;4969352;28;20241;-60
2022/12/29 05:25:38;;;;;;;5.30;1.20;;;;;;;11.43;67.56;98099.47;4968803;28;20333;-59
2022/12/29 05:28:18;;;;;;;2.97;1.30;;;;;;;11.41;66.88;98094.41;4970239;28;20231;-60
2022/12/29 05:30:50;;;;;;;4.00;1.40;;;;;;;11.49;66.26;98093.56;4966720;28;20238;-59
2022/12/29 05:33:18;;;;;;;1.90;1.30;;;;;;;11.47;66.71;98088.50;4970700;28;20243;-59
2022/12/29 05:35:45;;;;;;;6.37;1.47;;;;;;;11.37;66.80;98095.72;4987552;28;20600;-60
2022/12/29 05:38:12;;;;;;;2.27;1.30;;;;;;;11.39;66.44;98078.06;4966859;28;20236;-60
2022/12/29 05:40:39;;;;;;;2.13;1.17;;;;;;;11.28;67.45;98099.34;4965578;28;20238;-60
2022/12/29 05:43:15;;;;;;;2.43;1.47;;;;;;;11.26;66.36;98076.03;4967239;28;20591;-59
2022/12/29 05:46:21;;;;;;;3.50;1.73;;;;;;;11.27;67.13;98102.94;4956765;28;20321;-60
2022/12/29 05:49:17;;;;;;;3.00;1.40;;;;;;;11.27;67.20;98088.09;4954743;28;20306;-60
2022/12/29 05:52:13;;;;;;;2.90;1.30;;;;;;;11.37;66.22;98085.28;4917763;28;20264;-60
2022/12/29 05:54:40;;;;;;;5.70;1.43;;;;;;;11.34;66.49;98077.78;4972788;28;20431;-60
2022/12/29 05:57:12;;;;;;;2.90;1.40;;;;;;;11.34;65.78;98094.28;4967942;28;20246;-59
2022/12/29 05:59:40;;;;;;;3.47;1.50;;;;;;;11.31;65.94;98075.50;4989062;28;20698;-60
2022/12/29 06:02:08;;;;;;;4.60;1.50;;;;;;;11.35;66.53;98092.47;4970897;28;20307;-59
2022/12/29 06:04:34;;;;;;;2.63;1.20;;;;;;;11.45;65.42;98100.91;4965406;28;20231;-60
2022/12/29 06:07:01;;;;;;;3.50;1.53;;;;;;;11.42;65.68;98085.59;4971302;28;20789;-60
2022/12/29 06:09:36;;;;;;;3.47;1.47;;;;;;;11.46;64.97;98070.41;4972457;28;20233;-59
2022/12/29 06:12:04;;;;;;;2.97;1.73;;;;;;;11.51;64.84;98099.44;4968682;28;20266;-59
2022/12/29 06:14:32;;;;;;;9.97;5.87;;;;;;;11.54;64.48;98077.38;4980830;28;20327;-59
2022/12/29 06:17:00;;;;;;;6.43;2.63;;;;;;;11.56;64.30;98084.06;4961411;28;20581;-59
2022/12/29 06:19:30;;;;;;;4.17;1.50;;;;;;;11.59;63.75;98078.50;4964575;28;20234;-59
2022/12/29 06:21:57;;;;;;;2.57;1.30;;;;;;;11.57;65.40;98080.47;4970281;28;20306;-59
2022/12/29 06:24:23;;;;;;;4.70;1.43;;;;;;;11.69;64.07;98093.97;4963279;28;20857;-60
2022/12/29 06:26:50;;;;;;;6.93;1.50;;;;;;;11.69;63.92;98085.28;4961889;28;20218;-60
2022/12/29 06:29:17;;;;;;;5.23;2.63;;;;;;;11.70;63.35;98073.84;4969863;28;20233;-59
2022/12/29 06:31:45;;;;;;;6.50;2.60;;;;;;;11.72;62.94;98075.31;4975936;28;20757;-60
2022/12/29 06:34:11;;;;;;;4.87;2.43;;;;;;;11.72;62.41;98070.09;4970700;28;20235;-60
2022/12/29 06:36:40;;;;;;;7.00;2.03;;;;;;;11.71;62.59;98059.78;4971497;28;20639;-59
2022/12/29 06:39:06;;;;;;;6.83;1.53;;;;;;;11.63;63.32;98078.97;4967619;28;20718;-60
2022/12/29 06:41:34;;;;;;;4.50;2.60;;;;;;;11.58;62.35;98044.69;4970894;28;20239;-60
2022/12/29 06:44:27;;;;;;;4.60;1.57;;;;;;;11.59;62.10;98064.59;4940743;28;20233;-59
2022/12/29 06:46:57;;;;;;;2.90;2.07;;;;;;;11.56;62.18;98052.69;4967408;28;20233;-60
2022/12/29 06:49:24;;;;;;;6.00;4.10;;;;;;;11.49;62.75;98055.16;4968810;28;20232;-59
2022/12/29 06:51:52;;;;;;;3.50;2.27;;;;;;;11.48;62.86;98063.19;4975217;28;20247;-60
2022/12/29 06:54:18;;;;;;;7.87;1.87;;;;;;;11.50;62.20;98059.41;4971015;28;20288;-59
2022/12/29 06:56:45;;;;;;;8.10;3.03;;;;;;;11.48;62.49;98068.41;4974878;28;20294;-60
2022/12/29 06:59:11;;;;;;;5.73;1.80;;;;;;;11.47;62.41;98057.13;4972804;28;20299;-59
2022/12/29 07:01:38;;;;;;;2.60;1.67;;;;;;;11.50;61.98;98053.38;4974724;28;20271;-60
2022/12/29 07:04:05;;;;;;;5.03;1.70;;;;;;;11.46;62.67;98052.91;4975853;28;20248;-60
2022/12/29 07:06:31;;;;;;;3.17;1.53;;;;;;;11.49;62.67;98070.84;4976225;28;20623;-60
2022/12/29 07:08:59;;;;;;;5.00;2.30;;;;;;;11.46;61.76;98070.41;4972703;28;20229;-59
2022/12/29 07:11:26;;;;;;;5.47;1.73;;;;;;;11.54;61.46;98066.91;4980992;28;20235;-60
2022/12/29 07:13:53;;;;;;;5.53;1.73;;;;;;;11.56;61.53;98064.94;4975639;28;20571;-60
2022/12/29 07:16:19;;;;;;;7.23;1.93;;;;;;;11.58;61.58;98073.44;4976229;28;20237;-59
2022/12/29 07:18:46;;;;;;;12.13;5.63;;;;;;;11.72;60.67;98069.25;4977005;28;20241;-60
2022/12/29 07:21:13;;;;;;;3.07;1.63;;;;;;;11.70;61.91;98077.28;4973482;28;20251;-59
2022/12/29 07:23:39;;;;;;;7.07;2.83;;;;;;;11.65;60.64;98064.75;4974797;28;20243;-60
2022/12/29 07:26:10;;;;;;;3.93;2.30;;;;;;;11.77;60.48;98078.22;4975839;28;20766;-60
2022/12/29 07:28:37;;;;;;;5.37;2.00;;;;;;;11.80;60.19;98075.28;4975069;28;20239;-60
2022/12/29 07:31:04;;;;;;;4.87;2.27;;;;;;;11.86;60.26;98060.69;4972310;28;20671;-60
2022/12/29 07:33:32;;;;;;;2.60;1.47;;;;;;;11.88;59.60;98086.69;4974380;28;20236;-60
2022/12/29 07:36:00;;;;;;;4.93;1.90;;;;;;;11.92;59.36;98099.22;4971636;28;20283;-60
2022/12/29 07:38:27;;;;;;;4.40;1.90;;;;;;;11.97;59.93;98090.88;4973015;28;20285;-60
2022/12/29 07:40:57;;;;;;;4.83;2.60;;;;;;;11.92;59.50;98099.22;4973329;28;20296;-60
2022/12/29 07:43:25;;;;;;;7.67;3.93;;;;;;;12.02;59.05;98114.75;4974159;28;20306;-59
2022/12/29 07:46:12;;;;;;;5.70;2.17;;;;;;;12.09;58.75;98105.22;4973109;28;20247;-59
2022/12/29 07:48:38;;;;;;;5.30;1.53;;;;;;;12.14;58.83;98115.16;4977376;28;20286;-59
2022/12/29 07:51:06;;;;;;;4.57;1.83;;;;;;;12.08;59.27;98110.59;4974184;28;20243;-59
2022/12/29 07:53:33;;;;;;;2.90;1.40;;;;;;;12.22;57.68;98088.09;4973441;28;20231;-59
2022/12/29 07:55:59;;;;;;;3.07;1.70;;;;;;;12.23;58.37;98098.41;4971289;28;20231;-59
2022/12/29 07:58:27;;;;;;;2.03;1.50;;;;;;;12.28;57.49;98128.47;4980570;28;20243;-59
2022/12/29 08:00:54;;;;;;;4.17;1.93;;;;;;;12.38;56.80;98123.81;4973808;28;20235;-60
2022/12/29 08:03:21;;;;;;;4.37;1.63;;;;;;;12.41;57.62;98107.78;4977934;28;20271;-60
2022/12/29 08:05:48;;;;;;;2.57;1.30;;;;;;;12.45;57.36;98119.53;4976269;28;20753;-60
2022/12/29 08:08:14;;;;;;;3.80;1.57;;;;;;;12.50;56.90;98138.13;4976668;28;20298;-59
2022/12/29 08:10:41;;;;;;;3.60;1.60;;;;;;;12.59;56.81;98117.13;4973616;28;20322;-60
2022/12/29 08:13:07;;;;;;;4.67;1.33;;;;;;;12.52;57.23;98146.63;4972065;28;20739;-59
2022/12/29 08:15:35;;;;;;;7.23;1.40;;;;;;;12.65;56.18;98151.25;4973787;28;20268;-60
2022/12/29 08:18:02;;;;;;;4.13;1.80;;;;;;;12.67;56.49;98159.75;4970184;28;20577;-59
2022/12/29 08:20:28;;;;;;;3.27;1.40;;;;;;;12.70;56.73;98159.41;4973475;28;20622;-60
2022/12/29 08:22:55;;;;;;;5.43;1.67;;;;;;;12.70;57.07;98163.84;4974251;28;20802;-59
2022/12/29 08:25:21;;;;;;;5.70;1.30;;;;;;;12.73;56.32;98160.06;4973371;28;20228;-60
2022/12/29 08:27:48;;;;;;;4.27;1.50;;;;;;;12.75;56.62;98160.69;4974255;28;20572;-59
2022/12/29 08:30:16;;;;;;;10.20;3.10;;;;;;;12.75;57.17;98187.69;4971544;28;20224;-60
2022/12/29 08:32:44;;;;;;;2.97;1.30;;;;;;;12.83;56.69;98178.97;4974438;28;20291;-59
2022/12/29 08:35:10;;;;;;;5.27;1.40;;;;;;;12.74;57.18;98175.56;4969428;28;20247;-60
2022/12/29 08:37:37;;;;;;;2.13;1.47;;;;;;;12.77;57.59;98174.41;4973011;28;20239;-59
2022/12/29 08:40:04;;;;;;;4.73;1.20;;;;;;;12.70;57.91;98169.09;4974151;28;20227;-60
2022/12/29 08:42:31;;;;;;;6.03;1.57;;;;;;;12.68;58.19;98184.16;4973338;28;20251;-59
2022/12/29 08:44:58;;;;;;;6.97;1.70;;;;;;;12.65;58.01;98192.38;4970219;28;20226;-59
2022/12/29 08:47:25;;;;;;;3.27;1.60;;;;;;;12.67;58.53;98208.72;4974440;28;20244;-59
2022/12/29 08:49:53;;;;;;;3.07;1.60;;;;;;;12.62;58.34;98192.72;4973956;28;20247;-60
2022/12/29 08:52:20;;;;;;;2.40;1.30;;;;;;;12.62;58.86;98197.94;4974246;28;20794;-59
2022/12/29 08:54:46;;;;;;;2.87;1.43;;;;;;;12.61;58.45;98217.25;4973844;28;20232;-60
2022/12/29 08:57:13;;;;;;;7.13;1.67;;;;;;;12.62;58.44;98201.38;4987571;28;20246;-59
2022/12/29 08:59:50;;;;;;;3.80;1.53;;;;;;;12.58;58.82;98207.13;4971883;28;20436;-59
2022/12/29 09:02:17;;;;;;;4.00;1.77;;;;;;;12.51;59.36;98217.47;4975569;28;20230;-61
2022/12/29 09:04:44;;;;;;;4.67;1.80;;;;;;;12.53;58.75;98199.78;4975385;28;20269;-59
2022/12/29 09:07:12;;;;;;;2.73;1.40;;;;;;;12.48;59.86;98199.50;4969360;28;20236;-60
2022/12/29 09:09:38;;;;;;;3.20;1.40;;;;;;;12.44;59.92;98206.06;4972645;28;20346;-60
2022/12/29 09:12:05;;;;;;;3.07;1.40;;;;;;;12.42;60.40;98208.03;4975991;28;20240;-58
2022/12/29 09:14:32;;;;;;;2.63;1.60;;;;;;;12.42;60.45;98229.81;4973562;28;20231;-59
2022/12/29 09:19:43;;;;;;;5.10;1.47;;;;;;;12.45;61.74;98200.66;4972166;28;20263;-59
2022/12/29 09:22:09;;;;;;;4.70;2.25;;;;;;;12.42;61.54;98210.66;4970525;28;20503;-59
2022/12/29 09:24:37;;;;;;;5.60;1.57;;;;;;;12.45;62.09;98208.53;4970183;28;20574;-61
2022/12/29 09:27:04;;;;;;;7.67;2.80;;;;;;;12.41;62.24;98222.94;4973562;28;20724;-59
2022/12/29 09:29:30;;;;;;;18.03;11.27;;;;;;;12.49;62.27;98220.28;4974337;28;20271;-60
2022/12/29 09:31:57;;;;;;;6.77;2.50;;;;;;;12.50;62.01;98221.91;4972931;28;20240;-60
2022/12/29 09:34:24;;;;;;;3.93;2.17;;;;;;;12.70;62.25;98234.56;4972618;28;20819;-59
2022/12/29 09:36:50;;;;;;;2.43;1.80;;;;;;;12.57;62.21;98208.94;4973342;28;20262;-59
2022/12/29 09:39:17;;;;;;;4.17;1.50;;;;;;;12.49;62.51;98214.22;4973456;28;20314;-60
2022/12/29 09:41:50;;;;;;;3.90;1.40;;;;;;;12.63;63.06;98217.91;4973343;28;20931;-59
2022/12/29 09:44:25;;;;;;;4.83;2.30;;;;;;;12.66;62.44;98228.84;4971802;28;20295;-60
2022/12/29 09:46:55;;;;;;;3.87;2.00;;;;;;;12.69;62.70;98244.19;4966916;28;20243;-60
2022/12/29 09:49:28;;;;;;;5.60;1.87;;;;;;;12.68;62.30;98218.19;4971419;28;20235;-59
2022/12/29 09:52:00;;;;;;;3.97;2.43;;;;;;;12.62;63.05;98248.50;4966320;28;20293;-60
2022/12/29 09:54:41;;;;;;;5.37;1.80;;;;;;;12.73;63.15;98228.13;4973781;28;20254;-59
2022/12/29 09:57:17;;;;;;;7.23;4.90;;;;;;;12.68;66.95;98208.53;4969100;28;20231;-60
2022/12/29 09:59:48;;;;;;;3.80;1.70;;;;;;;12.63;66.01;98220.53;4969786;28;20283;-60
2022/12/29 10:02:31;;;;;;;8.53;2.07;;;;;;;12.52;67.35;98247.91;4971377;28;20240;-61
2022/12/29 10:04:58;;;;;;;5.00;1.97;;;;;;;12.49;68.30;98232.53;4974284;28;20223;-59
2022/12/29 10:07:34;;;;;;;6.33;2.77;;;;;;;12.32;70.34;98234.44;4970304;28;20698;-60
2022/12/29 10:10:13;;;;;;;9.30;3.70;;;;;;;12.18;70.04;98243.84;4966511;28;20235;-60
2022/12/29 10:12:59;;;;;;;6.67;2.27;;;;;;;12.36;70.51;98231.28;4974370;28;20320;-60
2022/12/29 10:15:38;;;;;;;4.30;1.77;;;;;;;12.39;69.40;98241.41;4970566;28;20227;-60
2022/12/29 10:18:23;;;;;;;3.60;2.00;;;;;;;12.37;70.19;98222.47;4966588;28;20405;-59
2022/12/29 10:20:54;;;;;;;4.93;2.23;;;;;;;12.55;69.39;98230.06;4968404;28;20235;-60
2022/12/29 10:23:34;;;;;;;6.93;2.23;;;;;;;12.75;68.78;98232.19;4974905;28;20239;-59
2022/12/29 10:26:03;;;;;;;3.87;1.70;;;;;;;12.66;66.65;98231.44;4970904;28;20236;-60
2022/12/29 10:28:38;;;;;;;6.00;2.13;;;;;;;12.71;67.86;98215.22;4970881;28;20763;-61
2022/12/29 10:31:11;;;;;;;4.60;2.10;;;;;;;12.69;68.49;98214.59;4967525;28;20298;-60
2022/12/29 10:33:42;;;;;;;4.33;2.07;;;;;;;12.64;67.33;98211.69;4973931;28;20236;-60
2022/12/29 10:36:16;;;;;;;4.53;1.90;;;;;;;12.61;67.03;98217.25;4969235;28;20746;-60
2022/12/29 10:38:49;;;;;;;3.67;2.20;;;;;;;12.67;66.21;98211.34;4973099;28;20244;-60
2022/12/29 10:41:22;;;;;;;3.73;1.90;;;;;;;12.76;66.22;98223.34;4972824;28;20702;-60
2022/12/29 10:43:53;;;;;;;5.80;2.13;;;;;;;12.60;66.63;98228.72;4973948;28;20228;-59
2022/12/29 10:46:24;;;;;;;3.40;1.70;;;;;;;12.67;65.96;98220.00;4971416;28;20233;-59
2022/12/29 10:48:50;;;;;;;3.40;1.93;;;;;;;12.76;65.87;98225.97;4968627;28;20221;-60
2022/12/29 10:51:22;;;;;;;4.33;1.87;;;;;;;12.67;66.49;98234.91;4963980;28;20566;-60
2022/12/29 10:53:52;;;;;;;4.47;1.30;;;;;;;12.61;65.78;98217.25;4971145;28;20239;-59
2022/12/29 10:56:29;;;;;;;3.60;1.73;;;;;;;12.49;66.79;98269.19;4969502;28;20240;-60
2022/12/29 10:59:01;;;;;;;5.37;1.77;;;;;;;12.40;65.89;98242.25;4970542;28;20243;-59
2022/12/29 11:01:35;;;;;;;3.50;1.53;;;;;;;12.40;67.09;98256.13;4973345;28;20243;-58
2022/12/29 11:04:06;;;;;;;3.13;2.17;;;;;;;12.14;68.84;98253.03;4968386;28;20390;-60
2022/12/29 11:06:33;;;;;;;2.33;1.33;;;;;;;12.08;70.26;98259.72;4972197;28;20242;-60
2022/12/29 11:09:10;;;;;;;3.30;1.37;;;;;;;12.02;70.65;98245.53;4968897;28;20231;-59
2022/12/29 11:11:37;;;;;;;3.37;1.13;;;;;;;12.02;71.06;98260.41;4974087;28;20291;-59
2022/12/29 11:14:13;;;;;;;3.27;1.10;;;;;;;12.02;70.74;98258.63;4970743;28;20231;-60
2022/12/29 11:16:43;;;;;;;4.67;1.07;;;;;;;11.91;72.44;98251.91;4970000;28;20231;-60
2022/12/29 11:19:22;;;;;;;2.80;1.07;;;;;;;11.84;73.17;98264.00;4962907;28;20244;-60
2022/12/29 11:21:49;;;;;;;3.03;1.10;;;;;;;11.78;74.12;98249.00;4973955;28;20249;-60
2022/12/29 11:24:22;;;;;;;3.67;1.63;;;;;;;11.78;79.76;98249.00;4970000;28;20293;-59
2022/12/29 11:26:52;;;;;;;2.90;1.70;;;;;;;11.73;81.37;98233.81;4970509;28;20227;-59
2022/12/29 11:29:26;;;;;;;4.17;1.47;;;;;;;11.55;80.86;98249.72;4968563;28;20748;-60
2022/12/29 11:31:54;;;;;;;2.60;1.40;;;;;;;11.71;80.44;98238.41;4969013;28;20371;-60
2022/12/29 11:34:25;;;;;;;2.27;1.00;;;;;;;11.65;80.00;98239.06;4968878;28;20258;-60
2022/12/29 11:36:54;;;;;;;2.53;1.27;;;;;;;11.63;81.17;98241.88;4961812;28;20228;-59
2022/12/29 11:39:28;;;;;;;1.93;1.20;;;;;;;11.51;80.81;98249.22;4966217;28;20245;-58
2022/12/29 11:41:55;;;;;;;1.80;1.13;;;;;;;11.55;81.13;98251.50;4969653;28;20719;-58
2022/12/29 11:44:24;;;;;;;3.77;1.07;;;;;;;11.59;78.39;98247.59;4975581;28;20232;-60
2022/12/29 11:46:52;;;;;;;3.90;1.40;;;;;;;11.53;80.02;98251.69;4974727;28;20239;-59
2022/12/29 11:49:22;;;;;;;2.40;1.17;;;;;;;11.54;80.34;98237.63;4973047;28;20247;-59
2022/12/29 11:51:51;;;;;;;5.97;1.70;;;;;;;11.39;82.43;98239.28;4973120;28;20242;-59
2022/12/29 11:54:22;;;;;;;4.43;1.80;;;;;;;11.39;81.83;98241.91;4971850;28;20316;-59
2022/12/29 11:56:50;;;;;;;4.07;1.83;;;;;;;11.41;82.24;98238.13;4976206;28;20243;-60
2022/12/29 11:59:41;;;;;;;2.57;1.60;;;;;;;11.46;79.34;98230.63;4970959;28;20228;-59
2022/12/29 12:02:38;;;;;;;2.60;1.80;;;;;;;11.58;80.59;98209.34;4967573;28;20243;-58
2022/12/29 12:05:12;;;;;;;2.53;1.47;;;;;;;11.60;80.71;98210.84;4970128;28;20237;-59
2022/12/29 12:07:42;;;;;;;6.87;2.07;;;;;;;11.52;79.76;98208.25;4975325;28;20299;-59
2022/12/29 12:10:17;;;;;;;3.40;1.57;;;;;;;11.70;78.36;98205.41;4969987;28;22413;-58
2022/12/29 12:12:50;;;;;;;4.73;1.80;;;;;;;11.93;77.49;98200.25;4967643;28;20235;-59
2022/12/29 12:15:22;;;;;;;5.10;1.87;;;;;;;11.95;77.85;98202.69;4986204;28;20235;-59
2022/12/29 12:18:02;;;;;;;5.83;2.00;;;;;;;12.02;77.83;98200.25;4965168;28;20240;-60
2022/12/29 12:20:42;;;;;;;4.13;1.90;;;;;;;12.12;76.93;98198.22;4977324;28;20235;-59
2022/12/29 12:23:23;;;;;;;3.53;1.73;;;;;;;12.15;76.32;98204.94;4970528;28;20334;-59
2022/12/29 12:25:58;;;;;;;2.57;1.67;;;;;;;12.21;76.41;98181.50;4973346;28;20699;-59
2022/12/29 12:28:34;;;;;;;3.30;1.60;;;;;;;12.11;74.95;98196.59;4977722;28;20560;-60
2022/12/29 12:31:05;;;;;;;3.17;1.73;;;;;;;12.29;73.70;98185.06;4972976;28;20736;-58
2022/12/29 12:33:36;;;;;;;3.50;1.60;;;;;;;12.35;73.27;98195.63;4971871;28;20236;-59